Time;durP1;ratioP1;P1;durP2;ratioP2;P2;SDS_P1;SDS_P2;PMS_P1;PMS_P2;Temp;Humidity;BMP_temperature;BMP_pressure;BME280_temperature;BME280_humidity;BME280_pressure;Samples;Min_cycle;Max_cycle;Signal;HPM_P1;HPM_P2
2022/09/10 00:01:36;;;;;;;6.40;3.22;;;;;;;14.48;100.00;100041.53;1652712;84;21127;-71
2022/09/10 00:04:22;;;;;;;8.90;3.42;;;;;;;14.47;100.00;100051.80;1735083;82;21558;-70
2022/09/10 00:06:59;;;;;;;6.35;3.45;;;;;;;14.45;100.00;100047.75;1735230;82;20821;-72
2022/09/10 00:12:12;;;;;;;9.18;3.65;;;;;;;14.40;100.00;100053.47;1729093;82;20956;-70
2022/09/10 00:14:38;;;;;;;5.55;2.80;;;;;;;14.41;100.00;100050.37;1735095;82;20932;-72
2022/09/10 00:20:06;;;;;;;7.42;3.40;;;;;;;14.41;100.00;100039.84;1735136;82;20979;-70
2022/09/10 00:22:33;;;;;;;6.65;3.12;;;;;;;14.42;100.00;100040.07;1734556;82;21063;-73
2022/09/10 00:24:59;;;;;;;6.70;3.27;;;;;;;14.39;100.00;100042.95;1735008;82;20916;-70
2022/09/10 00:30:14;;;;;;;7.20;3.72;;;;;;;14.33;100.00;100049.84;1733981;82;20903;-71
2022/09/10 00:32:45;;;;;;;5.22;3.00;;;;;;;14.36;100.00;100054.11;1735093;82;21058;-73
2022/09/10 00:35:34;;;;;;;5.10;3.08;;;;;;;14.40;100.00;100045.16;1717187;82;21071;-72
2022/09/10 00:38:01;;;;;;;9.33;3.20;;;;;;;14.41;100.00;100042.05;1734682;82;20921;-72
2022/09/10 00:40:29;;;;;;;8.75;3.02;;;;;;;14.41;100.00;100035.12;1713154;82;21000;-71
2022/09/10 00:43:20;;;;;;;5.67;3.17;;;;;;;14.40;100.00;100024.38;1724322;82;20952;-71
2022/09/10 00:46:21;;;;;;;5.22;3.02;;;;;;;14.43;100.00;100016.77;1735084;82;21025;-71
2022/09/10 00:48:49;;;;;;;8.00;3.33;;;;;;;14.42;100.00;100021.48;1730311;82;20925;-72
2022/09/10 00:51:36;;;;;;;9.35;3.25;;;;;;;14.39;100.00;100017.18;1711789;82;20872;-70
2022/09/10 00:54:05;;;;;;;4.97;2.55;;;;;;;14.32;100.00;100021.30;1707265;82;21042;-72
2022/09/10 00:56:32;;;;;;;5.97;2.58;;;;;;;14.27;100.00;100027.03;1685635;83;21155;-71
2022/09/10 00:58:59;;;;;;;6.12;2.70;;;;;;;14.30;100.00;100017.22;1705838;84;20968;-74
2022/09/10 01:01:26;;;;;;;3.70;2.62;;;;;;;14.31;100.00;100018.27;1707171;84;21479;-72
2022/09/10 01:03:53;;;;;;;6.53;3.27;;;;;;;14.27;100.00;100018.71;1708306;84;20974;-71
2022/09/10 01:06:19;;;;;;;5.17;2.37;;;;;;;14.28;100.00;100018.15;1708333;83;21042;-74
2022/09/10 01:08:45;;;;;;;4.03;2.95;;;;;;;14.31;100.00;100020.25;1708166;83;21151;-72
2022/09/10 01:11:52;;;;;;;5.08;2.42;;;;;;;14.33;100.00;100016.58;1707850;82;21359;-72
2022/09/10 01:14:50;;;;;;;4.92;3.02;;;;;;;14.35;100.00;100019.23;1708292;83;21504;-73
2022/09/10 01:17:53;;;;;;;5.90;3.00;;;;;;;14.37;100.00;100009.20;1692858;83;20915;-72
2022/09/10 01:20:42;;;;;;;3.70;2.50;;;;;;;14.38;100.00;100012.80;1713210;83;20984;-72
2022/09/10 01:23:41;;;;;;;4.45;2.50;;;;;;;14.32;100.00;100018.52;1710571;83;21152;-74
2022/09/10 01:26:35;;;;;;;4.90;2.47;;;;;;;14.34;100.00;100023.17;1707141;84;21456;-75
2022/09/10 01:29:41;;;;;;;4.75;2.70;;;;;;;14.34;100.00;100027.33;1676710;83;20872;-73
2022/09/10 01:32:19;;;;;;;6.10;2.60;;;;;;;14.35;100.00;100028.94;1691921;83;21494;-72
2022/09/10 01:35:31;;;;;;;7.97;2.92;;;;;;;14.39;100.00;100031.05;1693062;83;21011;-74
2022/09/10 01:38:05;;;;;;;6.17;3.25;;;;;;;14.36;100.00;100031.94;1707682;83;21295;-73
2022/09/10 01:40:32;;;;;;;8.28;2.85;;;;;;;14.34;100.00;100025.94;1708017;83;20864;-73
2022/09/10 01:43:06;;;;;;;4.83;2.87;;;;;;;14.33;100.00;100029.84;1708218;83;21388;-73
2022/09/10 01:46:12;;;;;;;8.65;2.95;;;;;;;14.32;100.00;100022.69;1708107;83;20967;-72
2022/09/10 01:49:20;;;;;;;4.50;2.72;;;;;;;14.33;100.00;100024.89;1688803;83;20936;-72
2022/09/10 01:52:21;;;;;;;3.37;2.40;;;;;;;14.32;100.00;100017.14;1683950;84;21755;-76
2022/09/10 01:55:45;;;;;;;3.95;2.33;;;;;;;14.33;100.00;100021.52;1636584;83;20968;-75
2022/09/10 01:58:32;;;;;;;6.37;2.22;;;;;;;14.27;100.00;100017.89;1687369;83;21002;-73
2022/09/10 02:01:39;;;;;;;3.87;2.70;;;;;;;14.24;100.00;100014.63;1706984;83;20895;-76
2022/09/10 02:04:08;;;;;;;5.47;2.70;;;;;;;14.21;100.00;100011.73;1671527;85;21043;-73
2022/09/10 02:06:37;;;;;;;6.28;3.22;;;;;;;14.21;100.00;100006.98;1651604;86;21139;-75
2022/09/10 02:09:06;;;;;;;3.45;2.08;;;;;;;14.22;100.00;99998.11;1651516;87;20986;-73
2022/09/10 02:11:52;;;;;;;4.03;2.33;;;;;;;14.25;100.00;100000.21;1651566;85;21030;-77
2022/09/10 02:14:23;;;;;;;3.70;2.47;;;;;;;14.25;100.00;99991.89;1673191;85;21060;-73
2022/09/10 02:17:04;;;;;;;3.95;2.47;;;;;;;14.28;100.00;99987.66;1618988;85;21037;-74
2022/09/10 02:19:31;;;;;;;3.83;2.20;;;;;;;14.31;100.00;99985.60;1611314;87;21522;-73
2022/09/10 02:21:58;;;;;;;3.90;2.33;;;;;;;14.31;100.00;99989.17;1673779;85;20934;-74
2022/09/10 02:24:24;;;;;;;3.70;2.72;;;;;;;14.31;100.00;99987.78;1673621;85;21076;-74
2022/09/10 02:26:50;;;;;;;3.00;1.92;;;;;;;14.30;100.00;99980.63;1673646;85;20981;-75
2022/09/10 02:29:18;;;;;;;2.42;2.00;;;;;;;14.30;100.00;99974.26;1674007;85;21489;-74
2022/09/10 02:31:46;;;;;;;6.12;2.20;;;;;;;14.31;100.00;99975.31;1673736;85;21322;-74
2022/09/10 02:34:18;;;;;;;5.40;2.37;;;;;;;14.32;100.00;99971.97;1673771;85;21312;-74
2022/09/10 04:32:02;;;;;;;3.40;1.80;;;;;;;13.46;100.00;99952.23;1840720;77;22902;-73
2022/09/10 04:34:33;;;;;;;3.12;1.67;;;;;;;13.50;100.00;99955.16;1809696;77;21121;-79
2022/09/10 04:37:07;;;;;;;3.45;1.70;;;;;;;13.57;100.00;99955.50;1825037;78;21378;-75
2022/09/10 04:39:35;;;;;;;;;;;;;;;13.67;100.00;99956.27;1832083;77;20959;-73
2022/09/10 04:42:08;;;;;;;2.72;1.42;;;;;;;13.69;100.00;99948.45;1825748;77;20167;-72
2022/09/10 04:44:39;;;;;;;1.80;1.60;;;;;;;13.82;100.00;99935.53;1825066;78;20889;-74
2022/09/10 04:47:11;;;;;;;2.50;1.35;;;;;;;13.93;100.00;99932.66;1818407;77;20900;-70
2022/09/10 04:49:46;;;;;;;1.80;1.45;;;;;;;13.93;100.00;99930.45;1823414;78;20913;-71
2022/09/10 04:52:16;;;;;;;1.90;1.55;;;;;;;13.89;100.00;99933.66;1829577;77;20817;-74
2022/09/10 04:54:51;;;;;;;1.35;1.25;;;;;;;14.02;100.00;99940.11;1829644;77;20968;-77
2022/09/10 04:57:27;;;;;;;1.95;1.42;;;;;;;13.95;100.00;99937.30;1795074;78;20965;-71
2022/09/10 05:02:45;;;;;;;1.67;1.25;;;;;;;14.06;100.00;99936.89;1794030;79;21478;-74
2022/09/10 05:05:12;;;;;;;2.20;1.85;;;;;;;14.08;100.00;99930.45;1807663;78;20905;-72
2022/09/10 05:07:39;;;;;;;3.67;1.65;;;;;;;14.09;100.00;99928.73;1806254;78;20920;-74
2022/09/10 05:10:09;;;;;;;2.25;1.42;;;;;;;14.06;100.00;99923.86;1804303;78;20949;-74
2022/09/10 05:12:37;;;;;;;1.17;1.07;;;;;;;14.07;100.00;99935.77;1795482;79;20957;-76
2022/09/10 05:15:08;;;;;;;1.57;1.30;;;;;;;14.05;100.00;99924.20;1806977;78;20896;-75
2022/09/10 05:17:36;;;;;;;3.27;1.60;;;;;;;14.07;100.00;99926.89;1807005;78;21071;-73
2022/09/10 05:20:06;;;;;;;2.40;1.47;;;;;;;14.02;100.00;99925.69;1802816;78;20969;-74
2022/09/10 05:22:36;;;;;;;2.08;1.47;;;;;;;14.11;100.00;99922.28;1748285;80;21067;-75
2022/09/10 05:25:47;;;;;;;1.80;1.22;;;;;;;14.09;100.00;99924.58;1772621;80;21532;-72
2022/09/10 05:28:23;;;;;;;2.45;1.87;;;;;;;14.06;100.00;99920.27;1769774;80;20881;-76
2022/09/10 05:31:08;;;;;;;2.25;1.42;;;;;;;13.95;100.00;99910.98;1771452;79;21445;-76
2022/09/10 05:33:39;;;;;;;2.40;1.50;;;;;;;13.97;100.00;99914.20;1771391;80;20940;-73
2022/09/10 05:36:10;;;;;;;2.50;1.60;;;;;;;14.05;100.00;99917.27;1772430;80;21125;-74
2022/09/10 05:38:38;;;;;;;1.77;1.50;;;;;;;13.91;100.00;99914.16;1771004;80;20904;-75
2022/09/10 05:41:09;;;;;;;2.70;1.62;;;;;;;13.92;100.00;99908.06;1770908;80;21196;-72
2022/09/10 05:43:40;;;;;;;5.22;1.77;;;;;;;13.97;100.00;99924.49;1766278;80;20865;-77
2022/09/10 05:46:09;;;;;;;1.90;1.25;;;;;;;14.03;100.00;99919.55;1770932;80;21417;-72
2022/09/10 05:48:36;;;;;;;3.83;1.65;;;;;;;14.06;100.00;99923.03;1772172;80;20912;-76
2022/09/10 05:51:03;;;;;;;2.22;1.50;;;;;;;14.08;100.00;99918.80;1747558;80;21044;-74
2022/09/10 05:53:32;;;;;;;3.83;1.52;;;;;;;14.11;100.00;99918.13;1771948;80;21097;-76
2022/09/10 05:55:59;;;;;;;2.02;1.62;;;;;;;14.14;100.00;99924.16;1770771;80;21005;-74
2022/09/10 05:58:29;;;;;;;1.92;1.25;;;;;;;14.20;100.00;99925.58;1746942;80;21004;-73
2022/09/10 06:00:57;;;;;;;1.87;1.42;;;;;;;14.24;100.00;99919.62;1770846;79;21417;-74
2022/09/10 06:03:24;;;;;;;2.33;1.40;;;;;;;14.22;100.00;99930.22;1772323;80;20933;-74
2022/09/10 06:05:52;;;;;;;1.77;1.30;;;;;;;14.22;100.00;99921.91;1772178;80;21366;-76
2022/09/10 06:08:27;;;;;;;1.95;1.42;;;;;;;14.20;100.00;99920.03;1770483;80;20960;-74
2022/09/10 06:11:01;;;;;;;1.27;1.17;;;;;;;14.21;100.00;99920.30;1773312;80;21110;-75
2022/09/10 06:13:32;;;;;;;2.90;1.37;;;;;;;14.21;100.00;99928.61;1687302;83;21063;-73
2022/09/10 06:16:00;;;;;;;3.95;1.62;;;;;;;14.29;100.00;99927.73;1770799;79;20973;-68
2022/09/10 06:18:29;;;;;;;2.22;1.52;;;;;;;14.27;100.00;99930.59;1771069;80;21557;-72
2022/09/10 06:21:02;;;;;;;1.42;1.17;;;;;;;14.26;100.00;99931.75;1747401;80;21460;-73
2022/09/10 06:23:30;;;;;;;1.72;1.15;;;;;;;14.31;100.00;99929.58;1745654;80;20932;-75
2022/09/10 06:26:03;;;;;;;3.12;1.57;;;;;;;14.33;100.00;99934.22;1772260;80;21001;-71
2022/09/10 06:28:34;;;;;;;1.50;1.40;;;;;;;14.26;100.00;99927.03;1771036;80;20993;-77
2022/09/10 06:31:04;;;;;;;1.75;1.65;;;;;;;14.25;100.00;99924.00;1771028;80;21135;-74
2022/09/10 06:33:33;;;;;;;2.22;1.65;;;;;;;14.34;100.00;99931.70;1770923;79;20897;-76
2022/09/10 06:36:11;;;;;;;1.42;1.22;;;;;;;14.36;100.00;99927.20;1772207;80;21545;-73
2022/09/10 06:38:37;;;;;;;4.37;2.00;;;;;;;14.26;100.00;99915.94;1770874;80;20988;-74
2022/09/10 06:41:10;;;;;;;1.80;1.15;;;;;;;14.24;100.00;99912.69;1771989;80;20862;-71
2022/09/10 06:43:40;;;;;;;;;;;;;;;14.25;100.00;99912.91;1772978;81;21517;-76
2022/09/10 06:46:12;;;;;;;1.90;1.70;;;;;;;14.26;100.00;99909.58;1770781;80;20561;-79
2022/09/10 06:48:59;;;;;;;2.42;1.75;;;;;;;14.20;100.00;99916.70;1742018;80;20959;-75
2022/09/10 06:51:24;;;;;;;2.20;1.82;;;;;;;14.21;100.00;99907.82;1770271;79;21094;-72
2022/09/10 06:53:52;;;;;;;2.45;1.52;;;;;;;14.18;100.00;99910.67;1770919;80;21036;-76
2022/09/10 06:56:21;;;;;;;3.60;1.80;;;;;;;14.25;100.00;99915.69;1747409;80;21125;-76
2022/09/10 06:58:49;;;;;;;1.70;1.60;;;;;;;14.26;100.00;99905.42;1772121;80;20969;-72
2022/09/10 07:01:18;;;;;;;2.67;2.10;;;;;;;14.25;100.00;99915.69;1770629;80;20945;-74
2022/09/10 07:03:47;;;;;;;2.10;1.70;;;;;;;14.19;100.00;99908.73;1773640;80;20956;-74
2022/09/10 07:06:22;;;;;;;4.75;1.85;;;;;;;14.18;100.00;99909.86;1747371;81;21481;-74
2022/09/10 07:08:57;;;;;;;3.02;2.20;;;;;;;14.14;100.00;99918.61;1771263;80;21562;-71
2022/09/10 07:11:27;;;;;;;3.17;2.02;;;;;;;14.17;100.00;99913.78;1768726;80;20948;-74
2022/09/10 07:13:59;;;;;;;3.60;2.37;;;;;;;14.14;100.00;99914.45;1771505;80;20991;-73
2022/09/10 07:16:30;;;;;;;3.47;2.20;;;;;;;14.10;100.00;99917.91;1769228;80;20984;-73
2022/09/10 07:18:58;;;;;;;4.92;2.45;;;;;;;14.15;100.00;99921.61;1770821;80;20999;-72
2022/09/10 07:21:37;;;;;;;3.98;2.25;;;;;;;14.03;100.00;99922.33;1769625;79;21433;-73
2022/09/10 07:24:13;;;;;;;3.90;2.42;;;;;;;14.00;100.00;99922.44;1771783;80;21414;-74
2022/09/10 07:26:41;;;;;;;2.90;2.37;;;;;;;14.02;100.00;99915.99;1770474;80;20941;-72
2022/09/10 10:42:12;;;;;;;4.75;3.80;;;;;;;13.50;100.00;99831.98;1791473;80;23391;-76
2022/09/10 10:45:14;;;;;;;4.58;3.35;;;;;;;13.66;100.00;99821.20;1767996;81;20867;-76
2022/09/10 10:48:08;;;;;;;5.97;4.40;;;;;;;13.80;100.00;99815.99;1807626;79;21310;-77
2022/09/10 10:50:52;;;;;;;4.30;3.47;;;;;;;13.91;100.00;99804.75;1827695;78;20973;-76
2022/09/10 10:53:35;;;;;;;4.65;3.50;;;;;;;14.00;100.00;99799.16;1828972;78;21000;-75
2022/09/10 10:56:14;;;;;;;5.08;4.15;;;;;;;14.19;100.00;99797.89;1829515;78;20981;-75
2022/09/10 10:59:22;;;;;;;5.40;4.15;;;;;;;14.18;100.00;99797.63;1829308;78;20898;-76
2022/09/10 11:01:59;;;;;;;4.60;4.10;;;;;;;14.15;100.00;99788.05;1799982;78;21191;-76
2022/09/10 11:04:49;;;;;;;4.92;4.15;;;;;;;14.19;100.00;99785.41;1829490;78;20863;-74
2022/09/10 11:07:29;;;;;;;6.22;5.15;;;;;;;14.28;100.00;99786.14;1826847;78;20882;-75
2022/09/10 11:10:19;;;;;;;6.35;4.70;;;;;;;14.34;100.00;99776.48;1829649;78;20847;-76
2022/09/10 11:13:08;;;;;;;6.00;5.40;;;;;;;14.34;100.00;99775.11;1799943;78;20909;-74
2022/09/10 11:15:51;;;;;;;7.50;5.40;;;;;;;14.34;100.00;99772.33;1829063;78;20911;-75
2022/09/10 11:18:23;;;;;;;5.58;4.70;;;;;;;14.44;100.00;99764.73;1829470;78;20914;-77
2022/09/10 11:21:04;;;;;;;5.62;4.92;;;;;;;14.44;100.00;99760.01;1829563;78;20910;-76
2022/09/10 11:23:59;;;;;;;5.95;4.85;;;;;;;14.49;100.00;99756.20;1829417;78;20997;-76
2022/09/10 11:26:38;;;;;;;;;;;;;;;14.55;100.00;99755.43;1832401;78;21423;-75
2022/09/10 11:29:38;;;;;;;9.63;6.22;;;;;;;14.66;100.00;99749.68;1829300;78;21222;-77
2022/09/10 11:32:17;;;;;;;7.95;6.37;;;;;;;14.56;100.00;99745.38;1858713;77;21538;-78
2022/09/10 11:35:05;;;;;;;7.30;6.53;;;;;;;14.52;100.00;99736.71;1862871;77;20872;-77
2022/09/10 11:38:00;;;;;;;7.28;6.42;;;;;;;14.54;100.00;99739.36;1863806;77;20884;-77
2022/09/10 11:40:51;;;;;;;9.83;7.37;;;;;;;14.52;100.00;99734.73;1859574;76;20953;-76
2022/09/10 11:43:38;;;;;;;10.43;6.85;;;;;;;14.58;100.00;99722.86;1854005;77;20909;-77
2022/09/10 11:46:30;;;;;;;10.63;6.90;;;;;;;14.63;100.00;99725.98;1853455;77;20892;-73
2022/09/10 11:49:21;;;;;;;8.18;6.83;;;;;;;14.64;100.00;99725.64;1854137;77;20983;-77
2022/09/10 11:51:52;;;;;;;8.35;6.42;;;;;;;14.62;100.00;99734.08;1854217;77;21004;-75
2022/09/10 11:54:30;;;;;;;9.78;6.83;;;;;;;14.62;100.00;99726.55;1854015;77;20869;-76
2022/09/10 11:57:42;;;;;;;8.08;5.95;;;;;;;14.63;100.00;99726.80;1855054;77;20848;-77
2022/09/10 12:00:18;;;;;;;9.28;5.90;;;;;;;14.68;100.00;99733.52;1854059;77;20888;-77
2022/09/10 12:03:30;;;;;;;9.40;6.53;;;;;;;14.78;100.00;99729.48;1847932;77;20979;-76
2022/09/10 12:06:37;;;;;;;10.35;6.92;;;;;;;14.80;100.00;99717.51;1854310;77;21350;-77
2022/09/10 12:09:31;;;;;;;7.78;5.80;;;;;;;14.74;100.00;99709.13;1785639;77;20968;-77
2022/09/10 12:12:17;;;;;;;8.43;6.83;;;;;;;14.75;100.00;99703.02;1818106;77;21168;-77
2022/09/10 12:14:49;;;;;;;7.20;6.42;;;;;;;14.66;100.00;99702.54;1854446;77;21480;-75
2022/09/10 12:17:31;;;;;;;7.80;6.72;;;;;;;14.66;100.00;99698.95;1823025;77;20955;-73
2022/09/10 12:20:00;;;;;;;8.25;7.35;;;;;;;14.65;100.00;99700.11;1853932;77;20995;-76
2022/09/10 12:22:37;;;;;;;9.80;7.85;;;;;;;14.58;100.00;99695.95;1854160;77;21382;-77
2022/09/10 12:25:17;;;;;;;9.55;8.18;;;;;;;14.52;100.00;99687.59;1854168;77;21035;-76
2022/09/10 12:27:50;;;;;;;12.37;8.63;;;;;;;14.61;100.00;99687.51;1854051;77;20853;-77
2022/09/10 12:30:35;;;;;;;10.05;8.38;;;;;;;14.59;100.00;99689.81;1853432;77;21027;-72
2022/09/10 12:33:20;;;;;;;9.70;7.80;;;;;;;14.63;100.00;99681.05;1853781;77;21835;-76
2022/09/10 12:35:51;;;;;;;10.30;8.53;;;;;;;14.60;100.00;99678.38;1854051;77;20899;-76
2022/09/10 12:38:56;;;;;;;9.95;8.95;;;;;;;14.55;100.00;99680.58;1854269;77;21088;-74
2022/09/10 12:41:28;;;;;;;10.65;8.20;;;;;;;14.62;100.00;99682.78;1849257;77;20960;-76
2022/09/10 12:44:01;;;;;;;12.45;9.05;;;;;;;14.58;100.00;99682.66;1827630;78;20853;-74
2022/09/10 12:46:29;;;;;;;10.43;8.90;;;;;;;14.58;100.00;99683.47;1854254;77;20943;-76
2022/09/10 12:49:07;;;;;;;11.08;9.58;;;;;;;14.60;100.00;99682.53;1819203;77;21362;-78
2022/09/10 12:51:58;;;;;;;11.85;9.80;;;;;;;14.58;100.00;99685.43;1854098;77;21130;-77
2022/09/10 12:54:42;;;;;;;13.53;10.40;;;;;;;14.54;100.00;99683.91;1853701;77;20928;-75
2022/09/10 12:57:27;;;;;;;14.38;10.60;;;;;;;14.54;100.00;99694.19;1854094;77;21396;-76
2022/09/10 13:00:26;;;;;;;12.93;9.43;;;;;;;14.50;100.00;99684.95;1854979;77;20912;-74
2022/09/10 13:03:14;;;;;;;12.35;9.75;;;;;;;14.50;100.00;99678.02;1853690;77;21469;-72
2022/09/10 13:05:50;;;;;;;10.82;8.68;;;;;;;14.51;100.00;99672.13;1853963;77;20951;-73
2022/09/10 13:08:40;;;;;;;10.82;9.15;;;;;;;14.55;100.00;99672.26;1854036;77;20857;-71
2022/09/10 13:11:20;;;;;;;12.53;9.33;;;;;;;14.57;100.00;99674.91;1822452;77;20865;-77
2022/09/10 13:13:55;;;;;;;13.25;11.78;;;;;;;14.58;100.00;99669.61;1777785;78;20928;-77
2022/09/10 13:16:30;;;;;;;14.68;10.48;;;;;;;14.61;100.00;99663.94;1757399;81;20924;-77
2022/09/10 13:19:18;;;;;;;12.15;10.18;;;;;;;14.65;100.00;99660.72;1758332;81;21154;-78
2022/09/10 13:21:50;;;;;;;14.30;10.05;;;;;;;14.67;100.00;99659.78;1757747;81;21409;-78
2022/09/10 13:24:35;;;;;;;13.65;10.18;;;;;;;14.72;100.00;99649.06;1777533;80;20900;-78
2022/09/10 13:27:18;;;;;;;12.82;10.38;;;;;;;14.71;100.00;99646.04;1758853;81;20916;-77
2022/09/10 13:29:56;;;;;;;11.88;9.63;;;;;;;14.80;100.00;99639.85;1777472;80;21470;-76
2022/09/10 13:32:34;;;;;;;11.95;10.05;;;;;;;14.76;100.00;99632.52;1725644;83;21113;-78
2022/09/10 13:35:18;;;;;;;12.35;10.18;;;;;;;14.81;100.00;99630.36;1758171;80;20953;-78
2022/09/10 13:38:05;;;;;;;;;;;;;;;14.83;100.00;99629.45;1761322;81;21348;-74
2022/09/10 13:40:42;;;;;;;13.00;10.20;;;;;;;14.82;100.00;99627.02;1758316;81;20137;-75
2022/09/10 13:43:42;;;;;;;16.85;10.95;;;;;;;14.82;100.00;99619.48;1777297;80;21462;-76
2022/09/10 13:46:13;;;;;;;14.68;11.45;;;;;;;14.81;100.00;99617.06;1757626;81;21164;-79
2022/09/10 16:51:38;;;;;;;13.75;10.08;;;;;;;14.36;100.00;99454.05;1794771;79;23303;-70
2022/09/10 16:54:05;;;;;;;9.50;8.00;;;;;;;14.35;100.00;99429.45;1778402;80;21552;-72
2022/09/10 16:56:39;;;;;;;12.65;9.90;;;;;;;14.48;100.00;99426.11;1784021;80;21131;-72
2022/09/10 16:59:13;;;;;;;12.13;8.58;;;;;;;14.46;100.00;99413.98;1783744;79;20992;-73
2022/09/10 17:01:42;;;;;;;11.35;8.88;;;;;;;14.47;100.00;99412.00;1784095;80;21517;-72
2022/09/10 17:04:17;;;;;;;10.25;8.40;;;;;;;14.47;100.00;99401.73;1784014;80;20981;-72
2022/09/10 17:06:49;;;;;;;14.73;9.13;;;;;;;14.75;100.00;99399.35;1784392;80;21469;-72
2022/09/10 17:09:16;;;;;;;10.40;8.70;;;;;;;14.77;100.00;99397.86;1784043;80;21843;-73
2022/09/10 17:11:44;;;;;;;12.35;8.93;;;;;;;14.81;100.00;99402.94;1783313;80;20905;-73
2022/09/10 17:14:13;;;;;;;10.95;9.05;;;;;;;14.71;100.00;99391.74;1784049;80;20901;-72
2022/09/10 17:16:40;;;;;;;14.33;9.38;;;;;;;14.82;100.00;99407.92;1783935;80;20991;-72
2022/09/10 17:19:25;;;;;;;12.50;9.28;;;;;;;14.90;100.00;99414.47;1779571;80;20960;-72
2022/09/10 17:21:54;;;;;;;12.35;8.70;;;;;;;14.69;100.00;99408.48;1782751;80;21927;-72
2022/09/10 17:24:23;;;;;;;12.73;8.85;;;;;;;14.88;100.00;99402.34;1784088;80;20948;-71
2022/09/10 17:26:50;;;;;;;12.47;8.50;;;;;;;14.86;100.00;99405.25;1783835;80;20956;-70
2022/09/10 17:29:19;;;;;;;13.80;9.15;;;;;;;14.75;100.00;99399.35;1784038;80;21056;-72
2022/09/10 17:31:45;;;;;;;13.03;9.58;;;;;;;14.91;100.00;99405.80;1784224;80;20927;-73
2022/09/10 17:34:14;;;;;;;10.70;8.10;;;;;;;14.90;100.00;99395.05;1784096;80;21480;-72
2022/09/10 17:36:44;;;;;;;15.55;8.80;;;;;;;15.00;100.00;99380.68;1783852;80;21156;-72
2022/09/10 17:39:13;;;;;;;14.50;9.53;;;;;;;14.98;100.00;99383.59;1790449;79;21107;-72
2022/09/10 17:41:40;;;;;;;9.58;8.58;;;;;;;15.01;100.00;99373.17;1816186;79;20934;-73
2022/09/10 17:44:06;;;;;;;12.20;9.55;;;;;;;14.99;100.00;99363.82;1816326;79;21385;-71
2022/09/10 17:46:34;;;;;;;11.78;9.48;;;;;;;15.18;100.00;99352.63;1816033;79;21861;-73
2022/09/10 17:49:01;;;;;;;12.75;9.88;;;;;;;14.98;100.00;99337.22;1816340;79;20904;-72
2022/09/10 21:30:41;;;;;;;16.37;8.58;;;;;;;15.07;100.00;99190.84;1787542;80;23326;-69
2022/09/10 21:33:08;;;;;;;20.70;8.83;;;;;;;15.00;100.00;99168.46;1799605;79;21053;-72
2022/09/10 21:35:36;;;;;;;31.20;9.68;;;;;;;15.01;100.00;99155.41;1801146;79;21219;-74
2022/09/10 21:38:02;;;;;;;20.05;8.50;;;;;;;15.11;100.00;99136.02;1801839;79;21468;-72
2022/09/10 21:40:31;;;;;;;24.25;8.08;;;;;;;14.99;100.00;99133.58;1801902;79;21528;-72
2022/09/10 21:42:57;;;;;;;22.50;8.35;;;;;;;15.04;100.00;99122.20;1802204;79;20987;-72
2022/09/10 21:45:24;;;;;;;18.35;8.33;;;;;;;15.11;100.00;99144.34;1801851;79;20927;-70
2022/09/10 21:47:50;;;;;;;21.48;8.08;;;;;;;15.20;100.00;99126.90;1801886;79;21163;-73
2022/09/10 21:50:16;;;;;;;22.15;7.55;;;;;;;15.19;100.00;99146.11;1801882;79;20903;-74
2022/09/10 21:52:43;;;;;;;21.20;8.55;;;;;;;15.18;100.00;99134.20;1771463;79;20911;-72
2022/09/10 21:55:09;;;;;;;19.32;7.87;;;;;;;15.20;100.00;99128.28;1802115;79;20920;-74
2022/09/10 21:57:37;;;;;;;18.75;7.72;;;;;;;15.22;100.00;99119.02;1801612;78;20956;-69
2022/09/10 22:00:17;;;;;;;20.23;7.17;;;;;;;15.23;100.00;99122.61;1793783;79;20970;-73
2022/09/10 22:02:45;;;;;;;25.35;7.40;;;;;;;15.30;100.00;99120.00;1801853;79;20911;-72
2022/09/10 22:05:11;;;;;;;15.63;7.45;;;;;;;15.29;100.00;99111.44;1802078;79;21003;-73
2022/09/10 22:07:38;;;;;;;19.27;7.25;;;;;;;15.33;100.00;99120.09;1801950;79;20990;-71
2022/09/10 22:10:06;;;;;;;14.25;6.33;;;;;;;15.42;100.00;99109.36;1801963;79;20844;-71
2022/09/10 22:12:32;;;;;;;15.55;7.95;;;;;;;15.64;100.00;99102.88;1771715;79;21199;-72
2022/09/10 22:15:06;;;;;;;23.50;9.20;;;;;;;15.41;100.00;99114.10;1796779;79;20829;-74
2022/09/10 22:17:37;;;;;;;19.05;7.20;;;;;;;15.44;100.00;99105.05;1802182;79;20908;-73
2022/09/10 22:20:05;;;;;;;15.90;8.03;;;;;;;15.51;100.00;99116.88;1779466;79;20933;-74
2022/09/10 22:22:43;;;;;;;17.17;8.10;;;;;;;15.52;100.00;99111.57;1765760;81;21457;-75
2022/09/10 22:25:11;;;;;;;14.85;6.47;;;;;;;15.48;100.00;99120.39;1769316;81;21450;-72
2022/09/10 22:27:38;;;;;;;14.47;6.70;;;;;;;15.57;100.00;99097.98;1770518;81;21500;-72
2022/09/10 22:30:10;;;;;;;15.32;7.33;;;;;;;15.61;100.00;99092.50;1762106;81;20929;-73
2022/09/10 22:32:38;;;;;;;18.77;7.25;;;;;;;15.65;100.00;99083.64;1764240;79;20993;-72
2022/09/10 22:35:05;;;;;;;13.53;6.67;;;;;;;15.89;100.00;99077.57;1764963;81;21016;-74
2022/09/10 22:37:33;;;;;;;14.75;6.78;;;;;;;15.78;100.00;99062.89;1764201;81;21151;-71
2022/09/10 22:40:00;;;;;;;13.98;6.92;;;;;;;15.72;100.00;99069.91;1764615;81;20921;-72
2022/09/10 22:42:26;;;;;;;16.77;7.35;;;;;;;15.67;100.00;99067.43;1764165;81;21056;-72
2022/09/10 22:44:55;;;;;;;12.82;7.08;;;;;;;15.66;100.00;99058.28;1764341;81;20924;-71
2022/09/10 22:47:28;;;;;;;12.45;6.75;;;;;;;15.66;100.00;99060.28;1764853;81;20881;-73
2022/09/10 22:50:11;;;;;;;11.85;6.78;;;;;;;15.54;100.00;99050.13;1759270;81;21193;-72
2022/09/10 22:52:37;;;;;;;;;;;;;;;15.52;100.00;99044.94;1766868;81;20980;-71
2022/09/10 22:55:05;;;;;;;9.55;5.95;;;;;;;15.43;100.00;99041.56;1764526;81;20106;-74
2022/09/10 22:57:32;;;;;;;9.85;6.35;;;;;;;15.53;100.00;99035.43;1764261;81;20937;-69
2022/09/10 23:00:02;;;;;;;17.48;7.47;;;;;;;15.57;100.00;99038.28;1764329;81;20970;-70
2022/09/10 23:02:49;;;;;;;13.48;6.72;;;;;;;15.55;100.00;99038.66;1751341;81;21414;-71
2022/09/10 23:05:16;;;;;;;8.17;6.07;;;;;;;15.65;100.00;99023.95;1764736;81;21117;-76
2022/09/10 23:07:43;;;;;;;13.88;6.25;;;;;;;15.76;100.00;99018.61;1764275;81;21452;-72
2022/09/10 23:10:10;;;;;;;10.10;6.40;;;;;;;15.66;100.00;99026.36;1764293;81;20980;-73
2022/09/10 23:12:40;;;;;;;10.30;6.22;;;;;;;15.57;100.00;99033.52;1764233;81;20984;-72
2022/09/10 23:15:08;;;;;;;12.47;6.22;;;;;;;15.71;100.00;99044.72;1764185;81;21103;-71
2022/09/10 23:17:35;;;;;;;12.07;6.90;;;;;;;15.89;100.00;99043.66;1734558;81;20983;-70
2022/09/10 23:20:02;;;;;;;14.10;5.92;;;;;;;15.68;100.00;99029.58;1764071;80;20933;-70
2022/09/10 23:22:29;;;;;;;11.43;6.37;;;;;;;15.70;100.00;99035.57;1764222;81;20922;-72
2022/09/10 23:24:55;;;;;;;10.18;6.40;;;;;;;15.79;100.00;99024.81;1764307;81;20976;-72
2022/09/10 23:27:23;;;;;;;6.70;4.90;;;;;;;15.62;100.00;99019.95;1764194;81;20980;-70
2022/09/10 23:29:49;;;;;;;12.30;6.45;;;;;;;15.73;100.00;99009.02;1762091;81;21039;-74
2022/09/10 23:32:16;;;;;;;12.20;6.05;;;;;;;15.78;100.00;99012.11;1758306;81;21056;-73
2022/09/10 23:34:45;;;;;;;11.53;5.87;;;;;;;15.80;100.00;99011.95;1758275;81;20917;-70
2022/09/10 23:37:13;;;;;;;12.70;6.85;;;;;;;15.89;100.00;99006.73;1732990;81;20925;-72
2022/09/10 23:39:40;;;;;;;10.15;6.65;;;;;;;15.93;100.00;99003.45;1758354;81;21990;-74
2022/09/10 23:42:07;;;;;;;14.18;5.85;;;;;;;15.93;100.00;98999.28;1758424;81;20929;-75
2022/09/10 23:44:36;;;;;;;10.20;6.25;;;;;;;15.90;100.00;98995.86;1758456;81;21430;-73
2022/09/10 23:47:05;;;;;;;11.08;6.15;;;;;;;15.95;100.00;98985.80;1758505;81;20862;-73
2022/09/10 23:49:32;;;;;;;12.55;6.87;;;;;;;15.89;100.00;98989.50;1758356;81;20884;-74
2022/09/10 23:51:59;;;;;;;13.85;5.85;;;;;;;15.88;100.00;98986.48;1758215;81;21116;-72
2022/09/10 23:54:27;;;;;;;12.90;6.65;;;;;;;15.78;100.00;98989.28;1758490;81;21165;-71
2022/09/10 23:56:53;;;;;;;10.38;6.40;;;;;;;15.93;100.00;98985.39;1758629;81;21517;-73
2022/09/10 23:59:20;;;;;;;12.40;6.05;;;;;;;15.82;100.00;98981.02;1758221;81;20937;-73
